sensor_id;sensor_type;location;lat;lon;timestamp;temperature;humidity
59923;DHT22;45778;51.142;3.732;2023-04-25T00:01:13;9.50;99.90
59923;DHT22;45778;51.142;3.732;2023-04-25T00:03:39;9.50;99.90
59923;DHT22;45778;51.142;3.732;2023-04-25T00:06:06;9.70;99.90
59923;DHT22;45778;51.142;3.732;2023-04-25T00:08:32;9.10;99.90
59923;DHT22;45778;51.142;3.732;2023-04-25T00:10:58;9.20;99.90
59923;DHT22;45778;51.142;3.732;2023-04-25T00:13:24;9.40;99.90
59923;DHT22;45778;51.142;3.732;2023-04-25T00:15:51;9.50;99.90
59923;DHT22;45778;51.142;3.732;2023-04-25T00:18:19;9.00;99.90
59923;DHT22;45778;51.142;3.732;2023-04-25T00:20:44;8.90;99.90
59923;DHT22;45778;51.142;3.732;2023-04-25T00:23:16;9.00;99.90
59923;DHT22;45778;51.142;3.732;2023-04-25T00:25:47;9.00;99.90
59923;DHT22;45778;51.142;3.732;2023-04-25T00:28:13;9.10;99.90
59923;DHT22;45778;51.142;3.732;2023-04-25T00:30:39;9.10;99.90
59923;DHT22;45778;51.142;3.732;2023-04-25T00:33:05;9.00;99.90
59923;DHT22;45778;51.142;3.732;2023-04-25T00:35:31;9.00;99.90
59923;DHT22;45778;51.142;3.732;2023-04-25T00:37:57;8.90;99.90
59923;DHT22;45778;51.142;3.732;2023-04-25T00:40:23;8.90;99.90
59923;DHT22;45778;51.142;3.732;2023-04-25T00:42:49;8.90;99.90
59923;DHT22;45778;51.142;3.732;2023-04-25T00:45:17;8.90;99.90
59923;DHT22;45778;51.142;3.732;2023-04-25T00:47:44;8.70;99.90
59923;DHT22;45778;51.142;3.732;2023-04-25T00:50:11;8.90;99.90
59923;DHT22;45778;51.142;3.732;2023-04-25T00:52:41;8.80;99.90
59923;DHT22;45778;51.142;3.732;2023-04-25T00:55:08;8.60;99.90
59923;DHT22;45778;51.142;3.732;2023-04-25T00:57:35;8.60;99.90
59923;DHT22;45778;51.142;3.732;2023-04-25T01:00:02;8.60;99.90
59923;DHT22;45778;51.142;3.732;2023-04-25T01:02:28;8.40;99.90
59923;DHT22;45778;51.142;3.732;2023-04-25T01:04:54;8.30;99.90
59923;DHT22;45778;51.142;3.732;2023-04-25T01:07:20;8.40;99.90
59923;DHT22;45778;51.142;3.732;2023-04-25T01:09:46;8.70;99.90
59923;DHT22;45778;51.142;3.732;2023-04-25T01:12:12;8.70;99.90
59923;DHT22;45778;51.142;3.732;2023-04-25T01:14:39;8.90;99.90
59923;DHT22;45778;51.142;3.732;2023-04-25T01:17:05;8.80;99.90
59923;DHT22;45778;51.142;3.732;2023-04-25T01:19:33;8.90;99.90
59923;DHT22;45778;51.142;3.732;2023-04-25T01:21:58;8.70;99.90
59923;DHT22;45778;51.142;3.732;2023-04-25T01:24:25;8.70;99.90
59923;DHT22;45778;51.142;3.732;2023-04-25T01:26:51;8.90;99.90
59923;DHT22;45778;51.142;3.732;2023-04-25T01:29:20;8.80;99.90
59923;DHT22;45778;51.142;3.732;2023-04-25T01:31:46;8.80;99.90
59923;DHT22;45778;51.142;3.732;2023-04-25T01:34:13;8.60;99.90
59923;DHT22;45778;51.142;3.732;2023-04-25T01:36:39;8.60;99.90
59923;DHT22;45778;51.142;3.732;2023-04-25T01:39:06;8.50;99.90
59923;DHT22;45778;51.142;3.732;2023-04-25T01:41:32;8.40;99.90
59923;DHT22;45778;51.142;3.732;2023-04-25T01:43:58;8.40;99.90
59923;DHT22;45778;51.142;3.732;2023-04-25T01:46:24;8.20;99.90
59923;DHT22;45778;51.142;3.732;2023-04-25T01:48:49;8.20;99.90
59923;DHT22;45778;51.142;3.732;2023-04-25T01:51:15;8.40;99.90
59923;DHT22;45778;51.142;3.732;2023-04-25T01:53:42;8.40;99.90
59923;DHT22;45778;51.142;3.732;2023-04-25T01:56:08;8.40;99.90
59923;DHT22;45778;51.142;3.732;2023-04-25T01:58:34;8.30;99.90
59923;DHT22;45778;51.142;3.732;2023-04-25T02:00:59;8.30;99.90
59923;DHT22;45778;51.142;3.732;2023-04-25T02:03:25;8.40;99.90
59923;DHT22;45778;51.142;3.732;2023-04-25T02:05:51;8.40;99.90
59923;DHT22;45778;51.142;3.732;2023-04-25T02:08:17;8.40;99.90
59923;DHT22;45778;51.142;3.732;2023-04-25T02:10:44;8.50;99.90
59923;DHT22;45778;51.142;3.732;2023-04-25T02:13:09;8.20;99.90
59923;DHT22;45778;51.142;3.732;2023-04-25T02:15:35;8.30;99.90
59923;DHT22;45778;51.142;3.732;2023-04-25T02:18:01;8.20;99.90
59923;DHT22;45778;51.142;3.732;2023-04-25T02:20:28;8.40;99.90
59923;DHT22;45778;51.142;3.732;2023-04-25T02:22:54;8.60;99.90
59923;DHT22;45778;51.142;3.732;2023-04-25T02:25:20;8.50;99.90
59923;DHT22;45778;51.142;3.732;2023-04-25T02:27:47;8.60;99.90
59923;DHT22;45778;51.142;3.732;2023-04-25T02:30:13;8.70;99.90
59923;DHT22;45778;51.142;3.732;2023-04-25T02:32:40;8.60;99.90
59923;DHT22;45778;51.142;3.732;2023-04-25T02:35:06;8.50;99.90
59923;DHT22;45778;51.142;3.732;2023-04-25T02:37:34;8.40;99.90
59923;DHT22;45778;51.142;3.732;2023-04-25T02:40:00;8.40;99.90
59923;DHT22;45778;51.142;3.732;2023-04-25T02:42:26;8.40;99.90
59923;DHT22;45778;51.142;3.732;2023-04-25T02:44:52;8.30;99.90
59923;DHT22;45778;51.142;3.732;2023-04-25T02:47:18;8.30;99.90
59923;DHT22;45778;51.142;3.732;2023-04-25T02:49:45;8.00;99.90
59923;DHT22;45778;51.142;3.732;2023-04-25T02:52:11;8.30;99.90
59923;DHT22;45778;51.142;3.732;2023-04-25T02:54:38;8.20;99.90
59923;DHT22;45778;51.142;3.732;2023-04-25T02:57:04;8.30;99.90
59923;DHT22;45778;51.142;3.732;2023-04-25T02:59:29;8.40;99.90
59923;DHT22;45778;51.142;3.732;2023-04-25T03:01:55;8.50;99.90
59923;DHT22;45778;51.142;3.732;2023-04-25T03:04:21;8.40;99.90
59923;DHT22;45778;51.142;3.732;2023-04-25T03:06:49;8.20;99.90
59923;DHT22;45778;51.142;3.732;2023-04-25T03:09:15;8.00;99.90
59923;DHT22;45778;51.142;3.732;2023-04-25T03:11:41;7.70;99.90
59923;DHT22;45778;51.142;3.732;2023-04-25T03:14:07;7.70;99.90
59923;DHT22;45778;51.142;3.732;2023-04-25T03:16:32;7.80;99.90
59923;DHT22;45778;51.142;3.732;2023-04-25T03:18:58;7.60;99.90
59923;DHT22;45778;51.142;3.732;2023-04-25T03:21:24;7.70;99.90
59923;DHT22;45778;51.142;3.732;2023-04-25T03:23:50;7.70;99.90
59923;DHT22;45778;51.142;3.732;2023-04-25T03:26:16;7.50;99.90
59923;DHT22;45778;51.142;3.732;2023-04-25T03:28:42;7.60;99.90
59923;DHT22;45778;51.142;3.732;2023-04-25T03:31:07;7.70;99.90
59923;DHT22;45778;51.142;3.732;2023-04-25T03:33:33;7.70;99.90
59923;DHT22;45778;51.142;3.732;2023-04-25T03:35:58;7.80;99.90
59923;DHT22;45778;51.142;3.732;2023-04-25T03:38:24;7.80;99.90
59923;DHT22;45778;51.142;3.732;2023-04-25T03:40:51;7.90;99.90
59923;DHT22;45778;51.142;3.732;2023-04-25T03:43:17;8.00;99.90
59923;DHT22;45778;51.142;3.732;2023-04-25T03:45:42;8.00;99.90
59923;DHT22;45778;51.142;3.732;2023-04-25T03:48:08;7.90;99.90
59923;DHT22;45778;51.142;3.732;2023-04-25T03:50:34;7.90;99.90
59923;DHT22;45778;51.142;3.732;2023-04-25T03:53:00;8.00;99.90
59923;DHT22;45778;51.142;3.732;2023-04-25T03:55:25;8.00;99.90
59923;DHT22;45778;51.142;3.732;2023-04-25T03:57:51;8.10;99.90
59923;DHT22;45778;51.142;3.732;2023-04-25T04:00:17;8.10;99.90
59923;DHT22;45778;51.142;3.732;2023-04-25T04:02:42;7.90;99.90
59923;DHT22;45778;51.142;3.732;2023-04-25T04:05:08;7.80;99.90
59923;DHT22;45778;51.142;3.732;2023-04-25T04:07:34;7.90;99.90
59923;DHT22;45778;51.142;3.732;2023-04-25T04:10:06;7.90;99.90
59923;DHT22;45778;51.142;3.732;2023-04-25T04:12:31;7.60;99.90
59923;DHT22;45778;51.142;3.732;2023-04-25T04:14:57;7.40;99.90
59923;DHT22;45778;51.142;3.732;2023-04-25T04:17:23;7.70;99.90
59923;DHT22;45778;51.142;3.732;2023-04-25T04:19:48;7.70;99.90
59923;DHT22;45778;51.142;3.732;2023-04-25T04:22:14;7.70;99.90
59923;DHT22;45778;51.142;3.732;2023-04-25T04:24:41;7.50;99.90
59923;DHT22;45778;51.142;3.732;2023-04-25T04:27:09;7.50;99.90
59923;DHT22;45778;51.142;3.732;2023-04-25T04:29:35;7.70;99.90
59923;DHT22;45778;51.142;3.732;2023-04-25T04:32:02;7.60;99.90
59923;DHT22;45778;51.142;3.732;2023-04-25T04:34:28;7.50;99.90
59923;DHT22;45778;51.142;3.732;2023-04-25T04:36:54;7.70;99.90
59923;DHT22;45778;51.142;3.732;2023-04-25T04:39:20;7.40;99.90
59923;DHT22;45778;51.142;3.732;2023-04-25T04:41:46;7.40;99.90
59923;DHT22;45778;51.142;3.732;2023-04-25T04:44:12;7.50;99.90
59923;DHT22;45778;51.142;3.732;2023-04-25T04:46:39;7.60;99.90
59923;DHT22;45778;51.142;3.732;2023-04-25T04:49:06;7.40;99.90
59923;DHT22;45778;51.142;3.732;2023-04-25T04:51:31;7.30;99.90
59923;DHT22;45778;51.142;3.732;2023-04-25T04:53:58;7.30;99.90
59923;DHT22;45778;51.142;3.732;2023-04-25T04:56:30;7.40;99.90
59923;DHT22;45778;51.142;3.732;2023-04-25T04:58:59;7.40;99.90
59923;DHT22;45778;51.142;3.732;2023-04-25T05:01:25;7.50;99.90
59923;DHT22;45778;51.142;3.732;2023-04-25T05:03:52;7.60;99.90
59923;DHT22;45778;51.142;3.732;2023-04-25T05:06:18;7.80;99.90
59923;DHT22;45778;51.142;3.732;2023-04-25T05:08:44;7.60;99.90
59923;DHT22;45778;51.142;3.732;2023-04-25T05:11:10;7.80;99.90
59923;DHT22;45778;51.142;3.732;2023-04-25T05:13:36;7.80;99.90
59923;DHT22;45778;51.142;3.732;2023-04-25T05:16:02;7.70;99.90
59923;DHT22;45778;51.142;3.732;2023-04-25T05:18:28;7.70;99.90
59923;DHT22;45778;51.142;3.732;2023-04-25T05:20:53;7.70;99.90
59923;DHT22;45778;51.142;3.732;2023-04-25T05:23:19;7.60;99.90
59923;DHT22;45778;51.142;3.732;2023-04-25T05:25:45;7.60;99.90
59923;DHT22;45778;51.142;3.732;2023-04-25T05:28:12;7.60;99.90
59923;DHT22;45778;51.142;3.732;2023-04-25T05:30:38;7.90;99.90
59923;DHT22;45778;51.142;3.732;2023-04-25T05:33:04;7.80;99.90
59923;DHT22;45778;51.142;3.732;2023-04-25T05:35:29;7.90;99.90
59923;DHT22;45778;51.142;3.732;2023-04-25T05:37:55;8.00;99.90
59923;DHT22;45778;51.142;3.732;2023-04-25T05:40:21;8.00;99.90
59923;DHT22;45778;51.142;3.732;2023-04-25T05:42:46;8.30;99.90
59923;DHT22;45778;51.142;3.732;2023-04-25T05:45:12;8.40;99.90
59923;DHT22;45778;51.142;3.732;2023-04-25T05:47:38;8.20;99.90
59923;DHT22;45778;51.142;3.732;2023-04-25T05:50:04;8.40;99.90
59923;DHT22;45778;51.142;3.732;2023-04-25T05:52:30;8.60;99.90
59923;DHT22;45778;51.142;3.732;2023-04-25T05:54:56;8.80;99.90
59923;DHT22;45778;51.142;3.732;2023-04-25T05:57:25;8.70;99.90
59923;DHT22;45778;51.142;3.732;2023-04-25T05:59:51;8.50;99.90
59923;DHT22;45778;51.142;3.732;2023-04-25T06:02:20;8.40;99.90
59923;DHT22;45778;51.142;3.732;2023-04-25T06:04:48;8.40;99.90
59923;DHT22;45778;51.142;3.732;2023-04-25T06:07:14;8.60;99.90
59923;DHT22;45778;51.142;3.732;2023-04-25T06:09:40;8.60;99.90
59923;DHT22;45778;51.142;3.732;2023-04-25T06:12:06;8.70;99.90
59923;DHT22;45778;51.142;3.732;2023-04-25T06:14:33;8.70;99.90
59923;DHT22;45778;51.142;3.732;2023-04-25T06:16:59;9.10;99.90
59923;DHT22;45778;51.142;3.732;2023-04-25T06:19:25;9.20;99.90
59923;DHT22;45778;51.142;3.732;2023-04-25T06:21:50;9.10;99.90
59923;DHT22;45778;51.142;3.732;2023-04-25T06:24:16;8.70;99.90
59923;DHT22;45778;51.142;3.732;2023-04-25T06:26:42;8.70;99.90
59923;DHT22;45778;51.142;3.732;2023-04-25T06:29:07;8.70;99.90
59923;DHT22;45778;51.142;3.732;2023-04-25T06:31:33;8.70;99.90
59923;DHT22;45778;51.142;3.732;2023-04-25T06:33:59;8.80;99.90
59923;DHT22;45778;51.142;3.732;2023-04-25T06:36:24;8.90;99.90
59923;DHT22;45778;51.142;3.732;2023-04-25T06:38:51;8.80;99.90
59923;DHT22;45778;51.142;3.732;2023-04-25T06:41:20;8.60;99.90
59923;DHT22;45778;51.142;3.732;2023-04-25T06:43:46;8.70;99.90
59923;DHT22;45778;51.142;3.732;2023-04-25T06:46:12;8.70;99.90
59923;DHT22;45778;51.142;3.732;2023-04-25T06:48:38;8.50;99.90
59923;DHT22;45778;51.142;3.732;2023-04-25T06:51:03;8.40;99.90
59923;DHT22;45778;51.142;3.732;2023-04-25T06:53:29;8.60;99.90
59923;DHT22;45778;51.142;3.732;2023-04-25T06:55:55;8.70;99.90
59923;DHT22;45778;51.142;3.732;2023-04-25T06:58:21;8.60;99.90
59923;DHT22;45778;51.142;3.732;2023-04-25T07:00:46;8.50;99.90
59923;DHT22;45778;51.142;3.732;2023-04-25T07:03:12;8.50;99.90
59923;DHT22;45778;51.142;3.732;2023-04-25T07:05:38;8.30;99.90
59923;DHT22;45778;51.142;3.732;2023-04-25T07:08:03;8.60;99.90
59923;DHT22;45778;51.142;3.732;2023-04-25T07:10:29;8.90;99.90
59923;DHT22;45778;51.142;3.732;2023-04-25T07:12:55;8.70;99.90
59923;DHT22;45778;51.142;3.732;2023-04-25T07:15:20;8.80;99.90
59923;DHT22;45778;51.142;3.732;2023-04-25T07:17:46;8.90;99.90
59923;DHT22;45778;51.142;3.732;2023-04-25T07:20:12;8.80;99.90
59923;DHT22;45778;51.142;3.732;2023-04-25T07:22:38;8.90;99.90
59923;DHT22;45778;51.142;3.732;2023-04-25T07:25:03;9.00;99.90
59923;DHT22;45778;51.142;3.732;2023-04-25T07:27:30;8.80;99.90
59923;DHT22;45778;51.142;3.732;2023-04-25T07:29:55;8.80;99.90
59923;DHT22;45778;51.142;3.732;2023-04-25T07:32:21;8.90;99.90
59923;DHT22;45778;51.142;3.732;2023-04-25T07:34:47;9.10;99.90
59923;DHT22;45778;51.142;3.732;2023-04-25T07:37:13;9.50;99.90
59923;DHT22;45778;51.142;3.732;2023-04-25T07:39:39;9.80;99.90
59923;DHT22;45778;51.142;3.732;2023-04-25T07:42:05;9.90;99.90
59923;DHT22;45778;51.142;3.732;2023-04-25T07:44:34;9.90;99.90
59923;DHT22;45778;51.142;3.732;2023-04-25T07:47:05;10.10;99.90
59923;DHT22;45778;51.142;3.732;2023-04-25T07:49:32;10.00;99.90
59923;DHT22;45778;51.142;3.732;2023-04-25T07:51:59;10.00;99.90
59923;DHT22;45778;51.142;3.732;2023-04-25T07:54:24;9.90;99.90
59923;DHT22;45778;51.142;3.732;2023-04-25T07:56:50;9.60;99.90
59923;DHT22;45778;51.142;3.732;2023-04-25T07:59:16;9.40;99.90
59923;DHT22;45778;51.142;3.732;2023-04-25T08:01:42;9.50;99.90
59923;DHT22;45778;51.142;3.732;2023-04-25T08:04:07;9.80;99.90
59923;DHT22;45778;51.142;3.732;2023-04-25T08:06:33;9.80;99.90
59923;DHT22;45778;51.142;3.732;2023-04-25T08:08:58;9.60;99.90
59923;DHT22;45778;51.142;3.732;2023-04-25T08:11:24;9.60;99.90
59923;DHT22;45778;51.142;3.732;2023-04-25T08:13:50;9.70;99.90
59923;DHT22;45778;51.142;3.732;2023-04-25T08:16:16;9.70;99.90
59923;DHT22;45778;51.142;3.732;2023-04-25T08:18:41;9.80;99.90
59923;DHT22;45778;51.142;3.732;2023-04-25T08:21:07;9.60;99.90
59923;DHT22;45778;51.142;3.732;2023-04-25T08:23:36;9.90;99.90
59923;DHT22;45778;51.142;3.732;2023-04-25T08:26:02;10.00;99.90
59923;DHT22;45778;51.142;3.732;2023-04-25T08:28:28;9.90;99.90
59923;DHT22;45778;51.142;3.732;2023-04-25T08:30:54;10.10;99.90
59923;DHT22;45778;51.142;3.732;2023-04-25T08:33:20;9.90;99.90
59923;DHT22;45778;51.142;3.732;2023-04-25T08:35:46;9.90;99.90
59923;DHT22;45778;51.142;3.732;2023-04-25T08:38:12;10.10;99.90
59923;DHT22;45778;51.142;3.732;2023-04-25T08:40:39;10.40;99.90
59923;DHT22;45778;51.142;3.732;2023-04-25T08:43:06;10.40;99.90
59923;DHT22;45778;51.142;3.732;2023-04-25T08:45:39;10.80;99.90
59923;DHT22;45778;51.142;3.732;2023-04-25T08:48:10;11.20;99.90
59923;DHT22;45778;51.142;3.732;2023-04-25T08:50:39;11.40;99.90
59923;DHT22;45778;51.142;3.732;2023-04-25T08:53:08;10.90;99.90
59923;DHT22;45778;51.142;3.732;2023-04-25T08:55:37;10.50;99.90
59923;DHT22;45778;51.142;3.732;2023-04-25T08:58:06;10.40;99.90
59923;DHT22;45778;51.142;3.732;2023-04-25T09:00:31;9.90;99.90
59923;DHT22;45778;51.142;3.732;2023-04-25T09:02:58;9.40;99.90
59923;DHT22;45778;51.142;3.732;2023-04-25T09:05:24;9.00;99.90
59923;DHT22;45778;51.142;3.732;2023-04-25T09:07:50;8.50;99.90
59923;DHT22;45778;51.142;3.732;2023-04-25T09:10:16;8.50;99.90
59923;DHT22;45778;51.142;3.732;2023-04-25T09:12:42;8.50;99.90
59923;DHT22;45778;51.142;3.732;2023-04-25T09:15:12;8.70;99.90
59923;DHT22;45778;51.142;3.732;2023-04-25T09:17:41;8.90;99.90
59923;DHT22;45778;51.142;3.732;2023-04-25T09:20:11;9.20;99.90
59923;DHT22;45778;51.142;3.732;2023-04-25T09:22:37;9.20;99.90
59923;DHT22;45778;51.142;3.732;2023-04-25T09:25:13;9.40;99.90
59923;DHT22;45778;51.142;3.732;2023-04-25T09:27:51;9.60;99.90
59923;DHT22;45778;51.142;3.732;2023-04-25T09:30:17;9.80;99.90
59923;DHT22;45778;51.142;3.732;2023-04-25T09:32:43;9.80;99.90
59923;DHT22;45778;51.142;3.732;2023-04-25T09:35:10;9.80;99.90
59923;DHT22;45778;51.142;3.732;2023-04-25T09:37:36;10.00;99.90
59923;DHT22;45778;51.142;3.732;2023-04-25T09:40:06;10.00;99.90
59923;DHT22;45778;51.142;3.732;2023-04-25T09:42:32;10.20;99.90
59923;DHT22;45778;51.142;3.732;2023-04-25T09:45:00;10.40;99.90
59923;DHT22;45778;51.142;3.732;2023-04-25T09:47:29;10.50;99.90
59923;DHT22;45778;51.142;3.732;2023-04-25T09:49:55;10.60;99.90
59923;DHT22;45778;51.142;3.732;2023-04-25T09:52:22;10.70;99.90
59923;DHT22;45778;51.142;3.732;2023-04-25T09:54:49;11.10;99.90
59923;DHT22;45778;51.142;3.732;2023-04-25T09:59:52;11.60;99.90
59923;DHT22;45778;51.142;3.732;2023-04-25T10:02:20;11.40;99.90
59923;DHT22;45778;51.142;3.732;2023-04-25T10:04:51;11.10;99.90
59923;DHT22;45778;51.142;3.732;2023-04-25T10:07:23;11.10;99.90
59923;DHT22;45778;51.142;3.732;2023-04-25T10:10:04;10.70;99.90
59923;DHT22;45778;51.142;3.732;2023-04-25T10:12:30;10.90;99.90
59923;DHT22;45778;51.142;3.732;2023-04-25T10:14:58;10.80;99.90
59923;DHT22;45778;51.142;3.732;2023-04-25T10:17:23;10.70;99.90
59923;DHT22;45778;51.142;3.732;2023-04-25T10:19:50;10.70;99.90
59923;DHT22;45778;51.142;3.732;2023-04-25T10:22:39;11.10;99.90
59923;DHT22;45778;51.142;3.732;2023-04-25T10:25:07;11.00;99.90
59923;DHT22;45778;51.142;3.732;2023-04-25T10:27:34;10.90;99.90
59923;DHT22;45778;51.142;3.732;2023-04-25T10:30:18;10.40;99.90
59923;DHT22;45778;51.142;3.732;2023-04-25T10:32:45;10.30;99.90
59923;DHT22;45778;51.142;3.732;2023-04-25T10:35:18;10.50;99.90
59923;DHT22;45778;51.142;3.732;2023-04-25T10:37:58;10.90;99.90
59923;DHT22;45778;51.142;3.732;2023-04-25T10:40:23;11.20;99.90
59923;DHT22;45778;51.142;3.732;2023-04-25T10:42:52;11.40;99.90
59923;DHT22;45778;51.142;3.732;2023-04-25T10:45:18;11.90;99.40
59923;DHT22;45778;51.142;3.732;2023-04-25T10:47:45;12.20;99.10
59923;DHT22;45778;51.142;3.732;2023-04-25T10:50:11;12.20;99.20
59923;DHT22;45778;51.142;3.732;2023-04-25T10:52:38;11.70;99.60
59923;DHT22;45778;51.142;3.732;2023-04-25T10:55:06;12.10;99.90
59923;DHT22;45778;51.142;3.732;2023-04-25T10:57:42;12.60;98.30
59923;DHT22;45778;51.142;3.732;2023-04-25T11:02:46;12.80;96.50
59923;DHT22;45778;51.142;3.732;2023-04-25T11:05:32;12.50;96.40
59923;DHT22;45778;51.142;3.732;2023-04-25T11:07:58;11.90;96.80
59923;DHT22;45778;51.142;3.732;2023-04-25T11:10:29;11.50;96.40
59923;DHT22;45778;51.142;3.732;2023-04-25T11:12:56;11.40;96.40
59923;DHT22;45778;51.142;3.732;2023-04-25T11:15:22;11.80;97.50
59923;DHT22;45778;51.142;3.732;2023-04-25T11:17:48;12.10;97.50
59923;DHT22;45778;51.142;3.732;2023-04-25T11:20:14;12.20;97.80
59923;DHT22;45778;51.142;3.732;2023-04-25T11:22:41;12.30;97.70
59923;DHT22;45778;51.142;3.732;2023-04-25T11:25:12;12.80;98.00
59923;DHT22;45778;51.142;3.732;2023-04-25T11:27:55;13.30;97.50
59923;DHT22;45778;51.142;3.732;2023-04-25T11:30:23;13.40;96.70
59923;DHT22;45778;51.142;3.732;2023-04-25T11:32:49;13.50;93.80
59923;DHT22;45778;51.142;3.732;2023-04-25T11:35:16;12.80;94.50
59923;DHT22;45778;51.142;3.732;2023-04-25T11:37:43;12.30;94.90
59923;DHT22;45778;51.142;3.732;2023-04-25T11:40:10;11.50;96.20
59923;DHT22;45778;51.142;3.732;2023-04-25T11:42:37;11.20;96.60
59923;DHT22;45778;51.142;3.732;2023-04-25T11:45:04;10.80;97.20
59923;DHT22;45778;51.142;3.732;2023-04-25T11:47:33;10.70;98.30
59923;DHT22;45778;51.142;3.732;2023-04-25T11:50:00;11.20;97.20
59923;DHT22;45778;51.142;3.732;2023-04-25T11:52:38;11.70;97.50
59923;DHT22;45778;51.142;3.732;2023-04-25T11:55:15;12.60;97.30
59923;DHT22;45778;51.142;3.732;2023-04-25T11:57:43;13.40;96.10
59923;DHT22;45778;51.142;3.732;2023-04-25T12:00:10;14.20;95.70
59923;DHT22;45778;51.142;3.732;2023-04-25T12:02:37;14.50;95.20
59923;DHT22;45778;51.142;3.732;2023-04-25T12:05:06;14.40;94.00
59923;DHT22;45778;51.142;3.732;2023-04-25T12:07:34;14.10;94.60
59923;DHT22;45778;51.142;3.732;2023-04-25T12:10:08;13.60;95.40
59923;DHT22;45778;51.142;3.732;2023-04-25T12:12:34;12.90;95.20
59923;DHT22;45778;51.142;3.732;2023-04-25T12:15:14;12.30;96.20
59923;DHT22;45778;51.142;3.732;2023-04-25T12:17:49;11.60;97.00
59923;DHT22;45778;51.142;3.732;2023-04-25T12:20:18;11.80;96.90
59923;DHT22;45778;51.142;3.732;2023-04-25T12:22:46;12.70;96.80
59923;DHT22;45778;51.142;3.732;2023-04-25T12:25:35;14.70;94.30
59923;DHT22;45778;51.142;3.732;2023-04-25T12:31:13;15.50;90.90
59923;DHT22;45778;51.142;3.732;2023-04-25T12:33:40;15.80;91.50
59923;DHT22;45778;51.142;3.732;2023-04-25T12:36:08;14.70;92.20
59923;DHT22;45778;51.142;3.732;2023-04-25T12:38:39;14.40;92.60
59923;DHT22;45778;51.142;3.732;2023-04-25T12:41:05;13.60;94.10
59923;DHT22;45778;51.142;3.732;2023-04-25T12:43:31;13.20;94.00
59923;DHT22;45778;51.142;3.732;2023-04-25T12:45:57;13.00;94.30
59923;DHT22;45778;51.142;3.732;2023-04-25T12:48:23;13.20;94.70
59923;DHT22;45778;51.142;3.732;2023-04-25T12:50:50;13.80;93.60
59923;DHT22;45778;51.142;3.732;2023-04-25T12:53:18;14.00;93.40
59923;DHT22;45778;51.142;3.732;2023-04-25T12:55:44;13.10;93.70
59923;DHT22;45778;51.142;3.732;2023-04-25T12:58:17;12.90;93.90
59923;DHT22;45778;51.142;3.732;2023-04-25T13:00:43;13.00;94.60
59923;DHT22;45778;51.142;3.732;2023-04-25T13:03:09;12.70;95.90
59923;DHT22;45778;51.142;3.732;2023-04-25T13:05:36;12.70;96.30
59923;DHT22;45778;51.142;3.732;2023-04-25T13:08:02;12.60;96.70
59923;DHT22;45778;51.142;3.732;2023-04-25T13:10:28;12.20;97.20
59923;DHT22;45778;51.142;3.732;2023-04-25T13:12:53;12.70;96.40
59923;DHT22;45778;51.142;3.732;2023-04-25T13:15:19;12.90;96.80
59923;DHT22;45778;51.142;3.732;2023-04-25T13:17:45;13.90;96.00
59923;DHT22;45778;51.142;3.732;2023-04-25T13:20:12;15.80;94.10
59923;DHT22;45778;51.142;3.732;2023-04-25T13:22:39;16.90;91.80
59923;DHT22;45778;51.142;3.732;2023-04-25T13:25:06;17.00;91.20
59923;DHT22;45778;51.142;3.732;2023-04-25T13:27:33;16.70;89.70
59923;DHT22;45778;51.142;3.732;2023-04-25T13:30:03;14.90;91.90
59923;DHT22;45778;51.142;3.732;2023-04-25T13:32:35;15.30;91.60
59923;DHT22;45778;51.142;3.732;2023-04-25T13:35:03;16.10;90.20
59923;DHT22;45778;51.142;3.732;2023-04-25T13:37:29;15.40;88.00
59923;DHT22;45778;51.142;3.732;2023-04-25T13:39:55;14.90;90.60
59923;DHT22;45778;51.142;3.732;2023-04-25T13:42:22;13.50;92.50
59923;DHT22;45778;51.142;3.732;2023-04-25T13:44:48;12.50;93.80
59923;DHT22;45778;51.142;3.732;2023-04-25T13:47:14;12.50;93.90
59923;DHT22;45778;51.142;3.732;2023-04-25T13:49:39;12.50;94.10
59923;DHT22;45778;51.142;3.732;2023-04-25T13:52:05;13.30;93.70
59923;DHT22;45778;51.142;3.732;2023-04-25T13:54:31;14.70;91.70
59923;DHT22;45778;51.142;3.732;2023-04-25T13:56:57;15.30;90.60
59923;DHT22;45778;51.142;3.732;2023-04-25T13:59:24;15.60;91.00
59923;DHT22;45778;51.142;3.732;2023-04-25T14:01:51;15.50;88.40
59923;DHT22;45778;51.142;3.732;2023-04-25T14:04:19;15.40;89.40
59923;DHT22;45778;51.142;3.732;2023-04-25T14:06:45;15.40;89.10
59923;DHT22;45778;51.142;3.732;2023-04-25T14:09:11;15.90;88.70
59923;DHT22;45778;51.142;3.732;2023-04-25T14:11:38;15.80;85.50
59923;DHT22;45778;51.142;3.732;2023-04-25T14:14:05;15.50;84.60
59923;DHT22;45778;51.142;3.732;2023-04-25T14:16:30;14.50;90.00
59923;DHT22;45778;51.142;3.732;2023-04-25T14:18:59;16.00;87.90
59923;DHT22;45778;51.142;3.732;2023-04-25T14:21:25;17.60;82.60
59923;DHT22;45778;51.142;3.732;2023-04-25T14:23:52;16.80;81.40
59923;DHT22;45778;51.142;3.732;2023-04-25T14:26:18;16.50;84.60
59923;DHT22;45778;51.142;3.732;2023-04-25T14:28:44;17.20;82.70
59923;DHT22;45778;51.142;3.732;2023-04-25T14:31:09;20.30;78.40
59923;DHT22;45778;51.142;3.732;2023-04-25T14:33:35;19.60;70.70
59923;DHT22;45778;51.142;3.732;2023-04-25T14:36:02;19.40;73.40
59923;DHT22;45778;51.142;3.732;2023-04-25T14:38:28;19.40;72.30
59923;DHT22;45778;51.142;3.732;2023-04-25T14:40:54;18.60;74.90
59923;DHT22;45778;51.142;3.732;2023-04-25T14:43:20;16.90;76.70
59923;DHT22;45778;51.142;3.732;2023-04-25T14:45:45;16.40;79.50
59923;DHT22;45778;51.142;3.732;2023-04-25T14:48:11;16.20;80.20
59923;DHT22;45778;51.142;3.732;2023-04-25T14:50:37;17.70;76.90
59923;DHT22;45778;51.142;3.732;2023-04-25T14:53:03;20.00;74.00
59923;DHT22;45778;51.142;3.732;2023-04-25T14:55:28;19.80;68.20
59923;DHT22;45778;51.142;3.732;2023-04-25T14:57:54;20.70;69.50
59923;DHT22;45778;51.142;3.732;2023-04-25T15:00:21;20.90;68.30
59923;DHT22;45778;51.142;3.732;2023-04-25T15:02:48;19.00;68.50
59923;DHT22;45778;51.142;3.732;2023-04-25T15:05:13;17.40;71.10
59923;DHT22;45778;51.142;3.732;2023-04-25T15:07:39;17.80;75.00
59923;DHT22;45778;51.142;3.732;2023-04-25T15:10:08;18.00;76.20
59923;DHT22;45778;51.142;3.732;2023-04-25T15:12:39;16.80;78.60
59923;DHT22;45778;51.142;3.732;2023-04-25T15:15:06;18.30;77.30
59923;DHT22;45778;51.142;3.732;2023-04-25T15:17:40;20.80;74.40
59923;DHT22;45778;51.142;3.732;2023-04-25T15:20:07;20.10;72.10
59923;DHT22;45778;51.142;3.732;2023-04-25T15:22:35;18.10;77.10
59923;DHT22;45778;51.142;3.732;2023-04-25T15:25:01;18.50;77.60
59923;DHT22;45778;51.142;3.732;2023-04-25T15:27:27;19.00;76.00
59923;DHT22;45778;51.142;3.732;2023-04-25T15:29:53;17.30;78.40
59923;DHT22;45778;51.142;3.732;2023-04-25T15:32:19;14.50;84.40
59923;DHT22;45778;51.142;3.732;2023-04-25T15:34:46;14.60;84.40
59923;DHT22;45778;51.142;3.732;2023-04-25T15:37:11;14.70;84.30
59923;DHT22;45778;51.142;3.732;2023-04-25T15:39:37;15.90;80.60
59923;DHT22;45778;51.142;3.732;2023-04-25T15:42:03;16.20;80.00
59923;DHT22;45778;51.142;3.732;2023-04-25T15:44:28;15.40;81.90
59923;DHT22;45778;51.142;3.732;2023-04-25T15:46:54;15.20;81.00